Terminal Aerodrome Forecast
Issued by NWS

Home | Current Version | Previous Version | Text Only | Print | Product List | Glossary On
Versions: 1 2 3 4 5 6 7 8 9 10 11 12 13
000
FTUS45 KVEF 191727
TAFBIH
TAF
KBIH 191727Z 1918/2018 15006KT P6SM SCT200
     FM192000 02010G18KT P6SM SCT250
     FM200400 34007KT P6SM FEW250
     FM201400 VRB06KT P6SM SCT250=

USA.gov is the U.S. government's official web portal to all federal, state and local government web resources and services.